Time;durP1;ratioP1;P1;durP2;ratioP2;P2;SDS_P1;SDS_P2;PMS_P1;PMS_P2;Temp;Humidity;BMP_temperature;BMP_pressure;BME280_temperature;BME280_humidity;BME280_pressure;Samples;Min_cycle;Max_cycle;Signal;HPM_P1;HPM_P2
2022/10/17 00:00:59;;;;;;;3.33;2.22;;;;;;;21.56;58.40;97691.94;4870290;28;20695;-81
2022/10/17 00:03:24;;;;;;;3.58;2.40;;;;;;;21.61;58.55;97697.94;4903585;28;20188;-80
2022/10/17 00:05:50;;;;;;;4.65;2.33;;;;;;;21.51;58.86;97690.25;4871149;28;20316;-79
2022/10/17 00:08:16;;;;;;;4.68;2.40;;;;;;;21.61;58.63;97692.63;4887099;28;20656;-80
2022/10/17 00:10:42;;;;;;;3.78;2.38;;;;;;;21.62;58.46;97694.19;4887199;28;20704;-79
2022/10/17 00:13:08;;;;;;;4.43;2.42;;;;;;;21.55;59.24;97698.34;4886926;28;20202;-79
2022/10/17 00:15:34;;;;;;;3.47;2.35;;;;;;;21.42;59.60;97697.31;4886496;28;20641;-79
2022/10/17 00:17:59;;;;;;;2.47;2.28;;;;;;;21.28;59.33;97700.03;4870298;28;20244;-79
2022/10/17 00:20:25;;;;;;;2.97;2.22;;;;;;;21.13;59.88;97704.59;4870532;28;20262;-80
2022/10/17 00:22:51;;;;;;;5.43;2.38;;;;;;;21.29;59.35;97707.66;4885795;28;20206;-79
2022/10/17 00:25:17;;;;;;;4.22;2.92;;;;;;;21.38;58.78;97710.38;4875321;28;20292;-79
2022/10/17 00:27:42;;;;;;;3.00;2.47;;;;;;;21.26;59.18;97702.19;4886051;28;20217;-80
2022/10/17 00:30:11;;;;;;;6.20;2.58;;;;;;;21.48;58.55;97704.84;4870683;28;20190;-80
2022/10/17 00:32:37;;;;;;;3.05;2.35;;;;;;;21.50;58.48;97707.97;4885902;28;20171;-79
2022/10/17 00:35:02;;;;;;;6.07;2.38;;;;;;;21.40;58.96;97708.19;4883580;28;20167;-80
2022/10/17 00:37:30;;;;;;;3.47;2.25;;;;;;;21.47;58.44;97711.25;4870635;28;20679;-80
2022/10/17 00:39:55;;;;;;;4.93;2.35;;;;;;;21.51;58.30;97709.56;4890524;28;20498;-79
2022/10/17 00:42:21;;;;;;;2.53;2.22;;;;;;;21.48;58.21;97701.44;4887299;28;20483;-79
2022/10/17 00:44:46;;;;;;;4.78;2.13;;;;;;;21.55;58.36;97709.72;4887138;28;20269;-79
2022/10/17 00:47:14;;;;;;;5.53;2.30;;;;;;;21.51;58.53;97704.25;4892393;28;20290;-79
2022/10/17 00:49:40;;;;;;;6.40;2.83;;;;;;;21.45;58.75;97704.66;4890882;28;20289;-79
2022/10/17 00:52:08;;;;;;;4.07;2.55;;;;;;;21.27;59.23;97701.88;4890333;28;20199;-80
2022/10/17 00:54:38;;;;;;;3.97;2.45;;;;;;;21.30;59.55;97709.25;4872004;28;20099;-80
2022/10/17 00:57:04;;;;;;;4.80;3.00;;;;;;;21.14;59.75;97714.09;4890772;28;20273;-80
2022/10/17 00:59:32;;;;;;;5.45;2.72;;;;;;;21.22;59.52;97701.22;4885478;28;20284;-79
2022/10/17 01:02:18;;;;;;;5.57;2.35;;;;;;;21.24;59.41;97707.78;4873056;28;20240;-79
2022/10/17 01:04:46;;;;;;;5.18;2.50;;;;;;;21.13;59.78;97709.13;4887549;28;20162;-79
2022/10/17 01:07:11;;;;;;;6.55;3.08;;;;;;;20.99;60.43;97701.22;4889683;28;20226;-79
2022/10/17 01:09:38;;;;;;;3.45;2.55;;;;;;;21.02;60.14;97702.47;4892249;28;20622;-79
2022/10/17 01:12:12;;;;;;;4.90;2.80;;;;;;;21.02;60.08;97703.25;4890114;28;20170;-79
2022/10/17 01:14:54;;;;;;;5.43;2.92;;;;;;;20.98;60.64;97699.66;4855766;28;20285;-79
2022/10/17 01:17:39;;;;;;;2.97;2.50;;;;;;;20.97;60.08;97699.94;4890185;28;20203;-80
2022/10/17 01:20:26;;;;;;;3.58;2.35;;;;;;;20.95;60.27;97705.53;4874366;28;20274;-79
2022/10/17 01:23:07;;;;;;;4.38;2.63;;;;;;;21.22;59.26;97701.22;4889297;28;20226;-79
2022/10/17 01:25:47;;;;;;;4.80;2.50;;;;;;;21.26;58.98;97696.91;4874131;28;20223;-81
2022/10/17 01:28:13;;;;;;;3.17;2.70;;;;;;;21.27;58.48;97698.47;4889171;28;20261;-80
2022/10/17 01:30:41;;;;;;;4.10;2.55;;;;;;;21.34;58.25;97698.81;4874357;28;20576;-79
2022/10/17 01:33:28;;;;;;;5.07;2.42;;;;;;;21.41;58.27;97699.19;4889770;28;20273;-79
2022/10/17 01:35:58;;;;;;;3.42;2.53;;;;;;;21.50;57.86;97705.31;4890765;28;20194;-79
2022/10/17 01:38:31;;;;;;;4.78;2.40;;;;;;;21.52;57.84;97702.38;4861736;28;20538;-79
2022/10/17 01:41:13;;;;;;;5.20;2.80;;;;;;;21.46;57.92;97706.22;4890124;28;20198;-80
2022/10/17 01:43:41;;;;;;;3.30;2.80;;;;;;;21.44;58.03;97690.63;4874144;28;20289;-80
2022/10/17 01:46:24;;;;;;;6.13;2.60;;;;;;;21.43;58.46;97702.31;4875138;28;20206;-78
2022/10/17 01:48:49;;;;;;;8.27;2.55;;;;;;;21.63;57.86;97700.28;4873732;28;20262;-79
2022/10/17 01:51:22;;;;;;;3.28;2.83;;;;;;;21.82;57.18;97703.50;4874223;28;20269;-79
2022/10/17 01:54:10;;;;;;;4.97;2.75;;;;;;;21.95;56.70;97703.69;4873549;28;20260;-79
2022/10/17 01:56:37;;;;;;;7.65;2.80;;;;;;;21.81;56.68;97699.25;4873692;28;20201;-79
2022/10/17 01:59:08;;;;;;;4.95;2.70;;;;;;;21.88;57.11;97707.59;4889638;28;20287;-79
2022/10/17 02:01:34;;;;;;;3.67;2.70;;;;;;;21.81;57.20;97695.84;4873180;28;20296;-79
2022/10/17 02:04:01;;;;;;;10.35;3.22;;;;;;;21.60;57.74;97692.94;4922094;28;20607;-80
2022/10/17 02:06:26;;;;;;;5.55;3.20;;;;;;;21.53;57.86;97692.59;4889746;28;20267;-80
2022/10/17 02:08:52;;;;;;;4.55;2.50;;;;;;;21.64;57.65;97693.88;4889890;28;20261;-79
2022/10/17 02:11:20;;;;;;;4.45;3.08;;;;;;;21.54;57.68;97691.47;4889590;28;20214;-79
2022/10/17 02:14:10;;;;;;;5.43;3.33;;;;;;;21.76;57.36;97691.44;4889590;28;20319;-78
2022/10/17 02:16:50;;;;;;;4.35;2.65;;;;;;;21.65;57.36;97684.84;4873261;28;20228;-79
2022/10/17 02:19:43;;;;;;;3.38;2.78;;;;;;;21.61;57.38;97687.34;4873350;28;20242;-79
2022/10/17 02:22:27;;;;;;;4.18;2.80;;;;;;;21.65;56.95;97682.97;4902164;28;20597;-79
2022/10/17 02:24:55;;;;;;;3.08;2.80;;;;;;;21.56;57.45;97684.81;4869045;28;20214;-79
2022/10/17 02:27:44;;;;;;;4.05;2.83;;;;;;;21.73;57.36;97688.63;4889871;28;20212;-78
2022/10/17 02:30:20;;;;;;;4.40;2.60;;;;;;;21.51;57.82;97691.00;4868503;28;20236;-79
2022/10/17 02:32:51;;;;;;;6.60;3.03;;;;;;;21.48;57.50;97691.59;4890469;28;20363;-79
2022/10/17 02:35:18;;;;;;;3.80;2.50;;;;;;;21.59;57.70;97699.31;4875843;28;20206;-79
2022/10/17 02:37:44;;;;;;;3.28;2.80;;;;;;;21.63;57.29;97697.63;4872257;28;20291;-79
2022/10/17 02:40:13;;;;;;;3.65;2.92;;;;;;;21.60;57.38;97700.88;4888765;28;20077;-79
2022/10/17 02:42:40;;;;;;;3.58;3.28;;;;;;;21.66;57.41;97694.34;4873065;28;20250;-79
2022/10/17 02:45:06;;;;;;;3.85;2.70;;;;;;;21.55;57.68;97698.34;4884484;28;20205;-79
2022/10/17 02:47:48;;;;;;;5.13;2.67;;;;;;;21.68;57.21;97694.84;4872804;28;20711;-79
2022/10/17 02:50:14;;;;;;;6.13;2.90;;;;;;;21.68;57.13;97684.25;4886033;28;20643;-79
2022/10/17 02:52:45;;;;;;;4.15;3.15;;;;;;;21.74;57.03;97688.31;4879334;28;20224;-79
2022/10/17 02:55:20;;;;;;;6.47;3.25;;;;;;;21.75;57.14;97689.91;4887795;28;20214;-78
2022/10/17 02:57:51;;;;;;;3.50;2.95;;;;;;;21.70;57.39;97696.09;4888103;28;20236;-78
2022/10/17 03:00:18;;;;;;;3.60;2.90;;;;;;;21.58;57.65;97703.06;4888268;28;20251;-79
2022/10/17 03:02:48;;;;;;;3.00;2.70;;;;;;;21.52;58.12;97699.72;4887729;28;20633;-78
2022/10/17 03:05:21;;;;;;;4.78;2.90;;;;;;;21.41;58.39;97699.19;4885859;28;20583;-78
2022/10/17 03:07:46;;;;;;;3.47;3.17;;;;;;;21.28;58.46;97694.72;4864573;28;20205;-78
2022/10/17 03:10:11;;;;;;;4.53;2.78;;;;;;;21.14;58.52;97689.47;4903896;28;20176;-79
2022/10/17 03:12:37;;;;;;;7.25;3.20;;;;;;;21.10;59.03;97697.25;4887874;28;20249;-78
2022/10/17 03:15:03;;;;;;;6.43;2.80;;;;;;;20.99;59.09;97698.56;4887205;28;20280;-78
2022/10/17 03:17:28;;;;;;;3.88;3.28;;;;;;;21.04;59.17;97692.38;4889385;28;20299;-78
2022/10/17 03:19:53;;;;;;;4.72;2.60;;;;;;;20.99;59.20;97690.63;4871408;28;20354;-79
2022/10/17 03:22:19;;;;;;;6.30;3.30;;;;;;;20.99;59.59;97695.94;4876617;28;20145;-78
2022/10/17 03:24:44;;;;;;;6.68;4.00;;;;;;;20.97;59.80;97698.06;4891517;28;20608;-79
2022/10/17 03:27:10;;;;;;;4.88;3.13;;;;;;;20.92;59.39;97703.47;4887835;28;20194;-78
2022/10/17 03:29:35;;;;;;;6.53;2.90;;;;;;;20.84;59.92;97706.84;4887550;28;20284;-79
2022/10/17 03:32:01;;;;;;;3.45;2.70;;;;;;;20.85;59.79;97709.19;4871057;28;20316;-78
2022/10/17 03:34:26;;;;;;;3.85;2.80;;;;;;;20.87;59.42;97701.75;4887078;28;20243;-78
2022/10/17 03:36:51;;;;;;;4.47;3.03;;;;;;;20.92;59.51;97711.41;4870501;28;20120;-78
2022/10/17 03:39:16;;;;;;;6.93;2.92;;;;;;;20.89;59.43;97706.75;4887324;28;20229;-78
2022/10/17 03:41:42;;;;;;;5.03;3.35;;;;;;;20.88;59.42;97707.81;4887019;28;20223;-78
2022/10/17 03:44:07;;;;;;;3.85;2.83;;;;;;;20.91;59.68;97715.16;4871582;28;20348;-78
2022/10/17 03:46:33;;;;;;;3.72;3.33;;;;;;;20.87;59.55;97706.25;4882917;28;20221;-79
2022/10/17 03:48:58;;;;;;;5.15;3.35;;;;;;;20.85;59.65;97719.75;4886984;28;20431;-78
2022/10/17 03:51:24;;;;;;;4.05;3.00;;;;;;;20.84;59.69;97706.84;4871410;28;20213;-78
2022/10/17 03:53:49;;;;;;;5.45;2.67;;;;;;;20.85;59.51;97708.41;4871343;28;20072;-78
2022/10/17 03:56:17;;;;;;;3.50;2.40;;;;;;;20.90;59.58;97711.72;4870913;28;20183;-78
2022/10/17 03:58:43;;;;;;;6.10;2.55;;;;;;;20.90;59.42;97710.94;4898363;28;20651;-78
2022/10/17 04:01:10;;;;;;;3.88;2.60;;;;;;;20.96;59.11;97709.75;4871557;28;20197;-78
2022/10/17 04:03:36;;;;;;;6.43;2.65;;;;;;;21.05;58.64;97712.47;4891514;28;20307;-79
2022/10/17 04:06:02;;;;;;;3.13;2.83;;;;;;;21.21;57.79;97707.59;4854206;28;20180;-79
2022/10/17 04:08:28;;;;;;;4.40;2.50;;;;;;;21.38;57.24;97718.31;4885893;28;20189;-78
2022/10/17 04:11:01;;;;;;;5.22;2.55;;;;;;;21.54;56.34;97715.31;4888927;28;20201;-78
2022/10/17 04:13:27;;;;;;;3.83;2.10;;;;;;;21.48;56.09;97704.84;4885906;28;20289;-78
2022/10/17 04:15:58;;;;;;;4.18;2.53;;;;;;;21.70;55.93;97711.22;4886707;28;20193;-79
2022/10/17 04:18:24;;;;;;;4.47;2.67;;;;;;;21.64;55.23;97701.81;4871108;28;20189;-80
2022/10/17 04:20:50;;;;;;;3.25;2.35;;;;;;;21.83;55.17;97701.59;4855961;28;20315;-78
2022/10/17 04:23:15;;;;;;;3.47;2.30;;;;;;;21.77;55.35;97711.56;4887696;28;20299;-79
2022/10/17 04:25:40;;;;;;;3.15;2.47;;;;;;;21.86;54.76;97714.25;4887621;28;20260;-78
2022/10/17 04:28:06;;;;;;;3.80;2.30;;;;;;;21.82;54.42;97714.09;4887979;28;20197;-81
2022/10/17 04:30:31;;;;;;;3.47;2.28;;;;;;;21.68;55.06;97718.69;4887694;28;20640;-78
2022/10/17 04:32:57;;;;;;;5.35;2.55;;;;;;;21.83;54.87;97717.50;4887869;28;20172;-79
2022/10/17 04:35:22;;;;;;;3.65;2.00;;;;;;;21.69;54.07;97723.72;4887686;28;20193;-79
2022/10/17 04:37:48;;;;;;;5.32;2.22;;;;;;;22.01;54.19;97718.41;4887529;28;20210;-78
2022/10/17 04:40:13;;;;;;;5.22;2.83;;;;;;;21.99;54.44;97725.88;4887428;28;20194;-78
2022/10/17 04:42:39;;;;;;;4.80;2.40;;;;;;;21.89;54.92;97724.25;4887634;28;20107;-79
2022/10/17 04:45:05;;;;;;;5.90;2.55;;;;;;;21.77;55.51;97732.00;4882771;28;20253;-78
2022/10/17 04:47:30;;;;;;;5.43;2.78;;;;;;;21.47;55.91;97719.19;4866649;28;20281;-80
2022/10/17 04:49:56;;;;;;;4.50;2.35;;;;;;;21.57;55.28;97727.97;4889202;28;20171;-78
2022/10/17 04:52:21;;;;;;;4.03;2.53;;;;;;;21.63;55.54;97737.38;4888618;28;20651;-78
2022/10/17 04:54:46;;;;;;;7.43;2.42;;;;;;;21.56;55.55;97737.00;4870693;28;20291;-78
2022/10/17 04:57:12;;;;;;;4.32;2.75;;;;;;;21.51;55.67;97735.28;4871095;28;20213;-78
2022/10/17 04:59:37;;;;;;;3.67;2.30;;;;;;;21.50;56.02;97739.78;4886476;28;20210;-79
2022/10/17 05:02:02;;;;;;;2.22;2.03;;;;;;;21.41;55.75;97741.56;4885846;28;20633;-79
2022/10/17 05:04:28;;;;;;;3.20;2.90;;;;;;;21.40;55.87;97732.03;4885610;28;20168;-78
2022/10/17 05:06:53;;;;;;;4.78;2.35;;;;;;;21.42;55.42;97737.84;4887744;28;20743;-79
2022/10/17 05:09:18;;;;;;;4.28;2.63;;;;;;;21.49;55.77;97735.56;4861258;28;20610;-78
2022/10/17 05:11:44;;;;;;;5.55;2.22;;;;;;;21.59;55.19;97742.50;4859235;28;20600;-78
2022/10/17 05:14:09;;;;;;;2.75;2.30;;;;;;;21.63;54.98;97747.97;4886070;28;20659;-78
2022/10/17 05:16:34;;;;;;;2.92;2.05;;;;;;;21.59;55.50;97747.00;4885425;28;20256;-78
2022/10/17 05:19:00;;;;;;;3.15;2.65;;;;;;;21.46;55.60;97749.41;4868728;28;20194;-78
2022/10/17 05:21:28;;;;;;;3.63;2.10;;;;;;;21.50;55.44;97749.59;4886427;28;20268;-78
2022/10/17 05:23:53;;;;;;;3.58;2.33;;;;;;;21.48;55.39;97749.13;4885737;28;20108;-78
2022/10/17 05:26:20;;;;;;;3.30;2.38;;;;;;;21.39;55.58;97746.38;4861443;28;20262;-77
2022/10/17 05:28:45;;;;;;;3.45;2.47;;;;;;;21.40;55.75;97749.81;4886146;28;20274;-78
2022/10/17 05:31:11;;;;;;;3.83;2.30;;;;;;;21.33;56.41;97755.53;4872662;28;20222;-78
2022/10/17 05:33:37;;;;;;;3.90;2.40;;;;;;;21.19;56.14;97758.22;4888184;28;20639;-78
2022/10/17 05:36:03;;;;;;;4.63;2.72;;;;;;;21.12;56.32;97752.56;4890565;28;20194;-78
2022/10/17 05:38:29;;;;;;;3.00;2.25;;;;;;;21.13;56.53;97757.56;4888793;28;20175;-78
2022/10/17 05:40:59;;;;;;;5.90;2.20;;;;;;;21.23;56.22;97761.03;4888770;28;20636;-78
2022/10/17 05:43:25;;;;;;;3.70;2.47;;;;;;;21.10;56.63;97750.19;4888793;28;20210;-77
2022/10/17 05:45:51;;;;;;;2.95;2.45;;;;;;;21.13;56.29;97757.56;4885139;28;20221;-77
2022/10/17 05:48:16;;;;;;;3.85;2.70;;;;;;;21.05;56.90;97760.13;4874040;28;20190;-78
2022/10/17 05:50:42;;;;;;;4.10;2.33;;;;;;;21.20;56.22;97759.00;4889681;28;20354;-78
2022/10/17 05:53:08;;;;;;;4.93;2.90;;;;;;;21.14;56.13;97764.41;4873542;28;20632;-78
2022/10/17 05:55:33;;;;;;;7.95;2.15;;;;;;;21.15;55.53;97746.66;4873777;28;20217;-78
2022/10/17 05:57:59;;;;;;;4.20;1.98;;;;;;;21.31;55.28;97741.81;4889601;28;20210;-78
2022/10/17 06:00:25;;;;;;;3.92;2.53;;;;;;;21.38;54.84;97744.03;4855653;28;20299;-79
2022/10/17 06:02:50;;;;;;;2.13;1.92;;;;;;;21.54;54.59;97755.06;4889581;28;20325;-78
2022/10/17 06:05:16;;;;;;;3.10;2.40;;;;;;;21.59;54.64;97752.31;4889317;28;20257;-78
2022/10/17 06:07:42;;;;;;;4.60;2.47;;;;;;;21.61;54.76;97750.13;4873616;28;20318;-78
2022/10/17 06:10:08;;;;;;;4.68;2.33;;;;;;;21.49;55.61;97751.47;4873258;28;20307;-78
2022/10/17 06:12:34;;;;;;;9.35;2.78;;;;;;;21.47;55.79;97760.78;4889685;28;20194;-78
2022/10/17 06:14:59;;;;;;;2.88;2.17;;;;;;;21.31;56.08;97765.63;4888338;28;20209;-78
2022/10/17 06:17:24;;;;;;;2.97;2.55;;;;;;;21.30;56.07;97769.34;4875837;28;20638;-77
2022/10/17 06:19:50;;;;;;;2.75;2.50;;;;;;;21.33;56.04;97771.41;4872236;28;20190;-78
2022/10/17 06:22:15;;;;;;;6.45;3.35;;;;;;;21.27;56.46;97762.81;4888040;28;20183;-78
2022/10/17 06:24:41;;;;;;;4.93;2.80;;;;;;;21.39;55.75;97770.22;4857542;28;20693;-77
2022/10/17 06:27:07;;;;;;;4.25;2.00;;;;;;;21.34;55.55;97770.34;4890446;28;20198;-78
2022/10/17 06:29:32;;;;;;;4.47;2.38;;;;;;;21.57;55.22;97775.69;4876389;28;20617;-77
2022/10/17 06:31:57;;;;;;;3.50;2.20;;;;;;;21.59;54.44;97790.22;4888640;28;20387;-78
2022/10/17 06:34:23;;;;;;;5.88;2.28;;;;;;;21.73;54.49;97784.84;4890148;28;20588;-77
2022/10/17 06:36:48;;;;;;;4.45;2.90;;;;;;;21.71;54.37;97792.28;4871531;28;20206;-78
2022/10/17 06:39:14;;;;;;;3.53;2.10;;;;;;;21.72;53.82;97796.50;4872506;28;20218;-78
2022/10/17 06:41:43;;;;;;;3.80;2.10;;;;;;;21.81;53.67;97794.69;4872891;28;20731;-77
2022/10/17 06:44:12;;;;;;;3.53;2.00;;;;;;;21.94;53.86;97800.25;4873091;28;20206;-77
2022/10/17 06:46:39;;;;;;;4.28;1.80;;;;;;;22.18;53.20;97800.69;4887211;28;20688;-78
2022/10/17 06:49:05;;;;;;;4.80;2.17;;;;;;;22.19;53.33;97802.25;4881584;28;20170;-78
2022/10/17 06:51:34;;;;;;;3.15;2.30;;;;;;;21.98;53.06;97801.19;4872189;28;20281;-79
2022/10/17 06:53:59;;;;;;;2.50;1.63;;;;;;;22.17;52.65;97807.06;4888739;28;20639;-79
2022/10/17 06:56:24;;;;;;;3.92;1.90;;;;;;;22.34;52.17;97808.28;4887578;28;20160;-78
2022/10/17 06:58:51;;;;;;;3.30;1.88;;;;;;;22.26;52.07;97807.91;4887792;28;20686;-79
2022/10/17 07:01:17;;;;;;;2.53;1.77;;;;;;;22.34;52.02;97813.59;4872474;28;20618;-78
2022/10/17 07:03:42;;;;;;;2.28;2.00;;;;;;;22.62;51.53;97820.25;4872424;28;20190;-78
2022/10/17 07:06:10;;;;;;;4.93;2.13;;;;;;;22.65;51.92;97821.50;4872428;28;20277;-77
2022/10/17 07:08:36;;;;;;;2.95;1.40;;;;;;;22.75;51.17;97828.41;4888499;28;20192;-77
2022/10/17 07:11:09;;;;;;;2.65;1.70;;;;;;;22.87;52.46;97830.47;4887889;28;20655;-77
2022/10/17 07:13:34;;;;;;;3.17;1.83;;;;;;;22.65;52.39;97834.78;4888400;28;20285;-78
2022/10/17 07:16:00;;;;;;;2.92;2.17;;;;;;;22.66;52.20;97835.56;4887539;28;20250;-77
2022/10/17 07:18:25;;;;;;;5.47;2.67;;;;;;;22.63;52.05;97840.38;4872024;28;20189;-78
2022/10/17 07:20:52;;;;;;;2.83;2.03;;;;;;;22.75;52.33;97841.69;4887212;28;20120;-78
2022/10/17 07:23:18;;;;;;;4.40;2.70;;;;;;;22.85;52.27;97846.72;4875870;28;20111;-77
2022/10/17 07:25:43;;;;;;;6.20;1.88;;;;;;;22.89;52.21;97850.31;4871272;28;20605;-78
2022/10/17 07:28:08;;;;;;;5.13;2.20;;;;;;;22.91;52.58;97853.47;4885643;28;20195;-78
2022/10/17 07:30:34;;;;;;;5.55;2.33;;;;;;;22.93;52.35;97848.63;4887672;28;20413;-78
2022/10/17 07:32:59;;;;;;;2.90;1.67;;;;;;;23.00;52.18;97862.22;4856015;28;20114;-78
2022/10/17 07:35:25;;;;;;;4.85;2.10;;;;;;;23.03;52.24;97855.53;4886842;28;20191;-77
2022/10/17 07:37:50;;;;;;;3.35;1.90;;;;;;;23.11;52.17;97857.44;4869050;29;20221;-78
2022/10/17 07:40:15;;;;;;;4.28;2.38;;;;;;;23.22;51.19;97865.91;4870711;28;20206;-78
2022/10/17 07:42:41;;;;;;;3.35;2.00;;;;;;;23.20;52.35;97860.09;4886968;28;20267;-78
2022/10/17 07:45:06;;;;;;;3.67;2.60;;;;;;;23.30;51.17;97865.09;4868290;28;20695;-78
2022/10/17 07:47:34;;;;;;;4.00;2.45;;;;;;;23.34;51.90;97854.66;4871339;28;20189;-78
2022/10/17 07:50:03;;;;;;;2.13;1.90;;;;;;;23.36;51.19;97868.41;4887214;28;20289;-78
2022/10/17 07:52:29;;;;;;;2.08;1.77;;;;;;;23.35;51.32;97867.63;4871303;28;20259;-78
2022/10/17 07:54:54;;;;;;;5.05;1.90;;;;;;;23.47;51.66;97869.66;4854947;28;20312;-78
2022/10/17 07:57:20;;;;;;;3.67;1.80;;;;;;;23.50;49.92;97868.28;4887468;28;20175;-78
2022/10/17 07:59:46;;;;;;;3.42;1.90;;;;;;;23.53;50.24;97862.34;4887913;28;20711;-78
2022/10/17 08:02:22;;;;;;;3.65;2.00;;;;;;;23.70;50.76;97869.50;4889518;28;20719;-79
2022/10/17 08:04:48;;;;;;;2.45;1.90;;;;;;;23.63;49.88;97867.34;4887158;28;20190;-77
2022/10/17 08:07:14;;;;;;;2.70;1.90;;;;;;;23.62;50.17;97865.00;4887550;28;20296;-78
2022/10/17 08:09:40;;;;;;;3.78;2.22;;;;;;;23.79;50.81;97874.84;4887305;28;20214;-77
2022/10/17 08:12:06;;;;;;;3.58;2.00;;;;;;;23.46;52.25;97878.75;4869094;28;20286;-78
2022/10/17 08:14:31;;;;;;;2.92;1.98;;;;;;;23.54;50.82;97874.53;4886770;28;20221;-78
2022/10/17 08:16:57;;;;;;;3.15;2.28;;;;;;;23.35;51.23;97867.63;4887815;28;20103;-78
2022/10/17 08:19:22;;;;;;;2.60;1.83;;;;;;;23.03;50.75;97866.16;4887872;28;20238;-79
2022/10/17 08:21:48;;;;;;;2.95;1.92;;;;;;;23.09;49.72;97874.78;4855380;28;20230;-78
2022/10/17 08:24:14;;;;;;;2.80;1.73;;;;;;;23.46;50.27;97870.78;4871662;28;20233;-78
2022/10/17 08:26:39;;;;;;;2.80;1.83;;;;;;;23.31;50.00;97871.22;4871687;28;20646;-77
2022/10/17 08:29:05;;;;;;;3.92;2.00;;;;;;;23.05;50.59;97863.97;4887776;28;20260;-77
2022/10/17 08:31:30;;;;;;;3.53;2.08;;;;;;;23.41;50.17;97868.28;4887837;28;20188;-78
2022/10/17 08:33:55;;;;;;;5.68;1.85;;;;;;;23.48;50.28;97876.56;4902865;28;20367;-77
2022/10/17 08:36:21;;;;;;;7.13;2.60;;;;;;;23.59;50.03;97879.69;4887416;28;20302;-78
2022/10/17 08:38:46;;;;;;;2.53;1.83;;;;;;;23.59;50.47;97884.22;4887463;28;20361;-77
2022/10/17 08:41:17;;;;;;;3.55;2.00;;;;;;;23.67;49.69;97872.81;4871099;28;20100;-78
2022/10/17 08:44:04;;;;;;;5.72;2.22;;;;;;;23.58;49.90;97875.47;4888603;28;20176;-78
2022/10/17 08:46:38;;;;;;;3.00;1.63;;;;;;;23.70;49.89;97875.63;4868278;28;20237;-77
2022/10/17 08:49:10;;;;;;;4.00;2.08;;;;;;;23.63;50.72;97885.16;4887527;28;20498;-77
2022/10/17 08:51:42;;;;;;;4.72;1.98;;;;;;;23.45;50.42;97881.72;4882788;28;20160;-77
2022/10/17 08:54:16;;;;;;;4.32;2.30;;;;;;;23.77;50.37;97892.97;4890341;28;20280;-77
2022/10/17 08:56:44;;;;;;;3.30;2.10;;;;;;;23.78;50.02;97894.56;4870438;28;20166;-77
2022/10/17 08:59:12;;;;;;;2.38;1.80;;;;;;;23.65;50.12;97890.97;4887647;28;20293;-78
2022/10/17 09:01:47;;;;;;;2.83;1.67;;;;;;;23.82;50.03;97882.22;4887086;28;20186;-79
2022/10/17 09:04:19;;;;;;;3.60;2.28;;;;;;;23.75;49.70;97890.63;4872463;28;20190;-77
2022/10/17 09:06:52;;;;;;;4.85;3.03;;;;;;;23.93;50.20;97886.13;4887679;28;20281;-77
2022/10/17 09:09:18;;;;;;;2.72;1.83;;;;;;;24.13;50.17;97882.03;4855346;29;20189;-77
2022/10/17 09:12:11;;;;;;;6.15;2.20;;;;;;;24.02;49.00;97878.13;4871142;29;20647;-77
2022/10/17 09:15:21;;;;;;;3.28;2.08;;;;;;;24.17;49.21;97884.84;4886157;28;20307;-76
2022/10/17 09:17:51;;;;;;;3.03;1.70;;;;;;;24.28;50.01;97880.75;4871695;28;20202;-77
2022/10/17 09:20:22;;;;;;;3.33;2.20;;;;;;;24.27;49.74;97889.84;4873386;28;20228;-76
2022/10/17 09:22:57;;;;;;;5.97;2.22;;;;;;;24.57;48.64;97898.69;4872986;28;20733;-76
2022/10/17 09:25:24;;;;;;;4.80;2.33;;;;;;;24.31;49.63;97904.06;4872895;28;20202;-76
2022/10/17 09:28:08;;;;;;;4.35;2.13;;;;;;;24.21;49.08;97885.78;4889320;28;20194;-76
2022/10/17 09:30:46;;;;;;;5.45;1.75;;;;;;;24.67;48.57;97895.69;4891125;28;20599;-76
2022/10/17 09:33:12;;;;;;;5.90;1.75;;;;;;;24.53;48.50;97891.66;4873472;28;20388;-76
2022/10/17 09:35:37;;;;;;;1.90;1.80;;;;;;;24.80;48.03;97891.25;4872060;28;20375;-76
2022/10/17 09:38:03;;;;;;;4.07;2.00;;;;;;;24.95;48.63;97895.28;4888519;28;20195;-76
2022/10/17 09:40:33;;;;;;;2.17;1.88;;;;;;;25.15;48.35;97896.41;4889025;28;20194;-77
2022/10/17 09:43:01;;;;;;;3.92;2.35;;;;;;;24.80;47.57;97890.50;4873383;28;20423;-77
2022/10/17 09:45:30;;;;;;;4.30;2.28;;;;;;;24.94;48.68;97899.03;4885242;28;20332;-76
2022/10/17 09:48:01;;;;;;;3.47;2.05;;;;;;;24.91;46.93;97901.56;4869950;28;20202;-77
2022/10/17 09:50:31;;;;;;;2.92;1.88;;;;;;;24.85;47.84;97899.06;4882236;28;20222;-77
2022/10/17 09:53:07;;;;;;;4.07;2.05;;;;;;;25.48;46.17;97909.09;4850976;28;20186;-76
2022/10/17 09:55:38;;;;;;;3.20;1.70;;;;;;;25.72;46.13;97918.34;4872572;28;20141;-75
2022/10/17 09:58:05;;;;;;;3.63;2.42;;;;;;;25.65;47.43;97920.75;4888637;28;20710;-76
2022/10/17 10:00:44;;;;;;;4.32;1.88;;;;;;;25.81;47.00;97924.41;4888232;28;20358;-76
2022/10/17 10:03:15;;;;;;;4.93;2.22;;;;;;;25.87;47.22;97923.06;4888346;28;20252;-76
2022/10/17 10:05:44;;;;;;;3.72;2.25;;;;;;;25.73;47.35;97928.69;4890415;28;20375;-76
2022/10/17 10:08:15;;;;;;;2.00;1.90;;;;;;;26.03;47.05;97935.84;4872264;28;20373;-76
2022/10/17 10:10:42;;;;;;;4.15;2.17;;;;;;;26.00;46.95;97934.63;4888430;28;20214;-76
2022/10/17 10:13:13;;;;;;;3.80;2.13;;;;;;;26.36;46.04;97935.88;4888582;28;20190;-76
2022/10/17 10:15:43;;;;;;;7.30;2.30;;;;;;;25.90;47.15;97941.09;4887844;28;20229;-76
2022/10/17 10:18:24;;;;;;;3.35;1.90;;;;;;;26.14;46.35;97951.13;4871104;28;20320;-76
2022/10/17 10:21:05;;;;;;;3.80;2.50;;;;;;;26.34;47.31;97938.09;4888077;28;20187;-76
2022/10/17 10:23:30;;;;;;;2.47;1.95;;;;;;;26.02;47.63;97942.31;4890553;28;20305;-76
2022/10/17 10:25:56;;;;;;;3.75;2.28;;;;;;;26.27;46.98;97959.19;4887694;28;20625;-76
2022/10/17 10:28:25;;;;;;;2.33;2.10;;;;;;;26.32;46.65;97940.28;4888188;28;20219;-76
2022/10/17 10:30:51;;;;;;;3.10;1.85;;;;;;;26.20;46.44;97956.28;4870426;28;20272;-77
2022/10/17 10:33:22;;;;;;;3.55;2.38;;;;;;;26.29;45.47;97952.41;4856288;28;20262;-76
2022/10/17 10:36:02;;;;;;;2.90;1.98;;;;;;;26.50;46.19;97955.03;4872049;28;20358;-76
2022/10/17 10:38:30;;;;;;;3.05;2.30;;;;;;;26.49;46.59;97963.38;4872508;28;20083;-76
2022/10/17 10:41:01;;;;;;;3.65;2.38;;;;;;;26.16;46.73;97970.25;4856110;28;20199;-77
2022/10/17 10:43:33;;;;;;;3.08;2.35;;;;;;;26.27;46.85;97970.66;4872234;28;20226;-76
2022/10/17 10:45:58;;;;;;;4.07;2.28;;;;;;;26.44;46.86;97972.41;4868308;28;20372;-76
2022/10/17 10:48:26;;;;;;;2.38;2.05;;;;;;;26.59;45.70;97973.63;4887392;28;20261;-77
2022/10/17 10:51:06;;;;;;;4.45;2.10;;;;;;;26.46;46.98;97966.69;4868059;28;20688;-76
2022/10/17 10:54:00;;;;;;;2.65;2.17;;;;;;;26.71;45.98;97976.38;4855247;28;20260;-76
2022/10/17 10:56:39;;;;;;;3.92;2.00;;;;;;;26.98;44.47;97976.09;4889678;28;20164;-76
2022/10/17 10:59:09;;;;;;;2.33;2.03;;;;;;;26.47;46.10;97960.25;4887731;28;20281;-78
2022/10/17 11:02:04;;;;;;;3.30;2.40;;;;;;;26.76;45.73;97969.25;4887683;28;20242;-76
2022/10/17 11:05:00;;;;;;;5.10;2.40;;;;;;;27.22;46.09;97981.44;4886916;28;20289;-76
2022/10/17 11:07:36;;;;;;;3.75;2.35;;;;;;;27.04;45.59;97969.41;4889330;28;20327;-76
2022/10/17 11:10:20;;;;;;;4.38;2.45;;;;;;;27.27;44.74;97967.84;4852587;29;20201;-77
2022/10/17 11:13:30;;;;;;;3.80;2.20;;;;;;;27.58;45.08;97974.53;4866711;28;20187;-76
2022/10/17 11:16:09;;;;;;;3.17;1.92;;;;;;;27.44;44.54;97968.75;4887310;28;20194;-76
2022/10/17 11:18:37;;;;;;;3.95;2.35;;;;;;;27.93;45.11;97960.66;4870995;28;20290;-76
2022/10/17 11:21:14;;;;;;;3.88;2.25;;;;;;;28.15;43.91;97970.03;4869607;28;20187;-77
2022/10/17 11:23:47;;;;;;;2.83;2.35;;;;;;;28.19;41.99;97962.13;4887151;28;20651;-77
2022/10/17 11:26:25;;;;;;;3.92;2.20;;;;;;;28.64;43.08;97973.66;4886458;28;20187;-77
2022/10/17 11:28:56;;;;;;;4.63;2.20;;;;;;;28.88;42.28;97965.44;4871683;28;20329;-77
2022/10/17 11:31:30;;;;;;;4.25;2.40;;;;;;;29.39;40.95;97975.47;4887274;28;20194;-77
2022/10/17 11:33:56;;;;;;;2.38;2.00;;;;;;;29.12;41.56;97977.13;4886688;28;20349;-77
2022/10/17 11:36:29;;;;;;;3.85;2.42;;;;;;;29.73;40.90;97975.03;4887279;28;20120;-77
2022/10/17 11:39:02;;;;;;;4.80;2.28;;;;;;;30.09;39.55;97967.72;4887455;28;20692;-76
2022/10/17 11:41:39;;;;;;;1.90;1.80;;;;;;;30.72;38.65;97978.13;4887183;28;20190;-77
2022/10/17 11:44:32;;;;;;;4.10;1.80;;;;;;;30.74;39.43;97970.50;4886755;28;20283;-77